createdAt,value
2019-04-27T00:01:58.077Z,39.30
2019-04-27T00:05:07.847Z,39.80
2019-04-27T00:08:07.631Z,35.63
2019-04-27T00:11:13.661Z,35.70
2019-04-27T00:14:01.118Z,43.57
2019-04-27T00:17:21.120Z,38.10
2019-04-27T00:20:23.990Z,35.73
2019-04-27T00:23:14.935Z,36.90
2019-04-27T00:26:03.151Z,37.60
2019-04-27T00:28:50.518Z,37.00
2019-04-27T00:31:37.840Z,36.60
2019-04-27T00:34:25.311Z,34.63
2019-04-27T00:37:23.763Z,35.43
2019-04-27T00:40:23.464Z,41.33
2019-04-27T00:43:10.854Z,37.93
2019-04-27T00:45:57.961Z,35.53
2019-04-27T00:48:45.422Z,36.43
2019-04-27T00:51:33.249Z,38.80
2019-04-27T00:54:21.033Z,36.37
2019-04-27T00:57:26.117Z,33.80
2019-04-27T01:00:30.619Z,35.33
2019-04-27T01:03:26.217Z,36.10
2019-04-27T01:06:14.931Z,33.93
2019-04-27T01:09:03.393Z,35.90
2019-04-27T01:11:50.939Z,36.87
2019-04-27T01:14:38.276Z,31.53
2019-04-27T01:17:25.746Z,34.70
2019-04-27T01:20:13.169Z,33.13
2019-04-27T01:23:00.694Z,33.63
2019-04-27T01:26:05.413Z,37.83
2019-04-27T01:28:59.192Z,33.93
2019-04-27T01:31:48.573Z,30.27
2019-04-27T01:34:35.686Z,32.20
2019-04-27T01:37:23.022Z,33.37
2019-04-27T01:40:10.062Z,31.63
2019-04-27T01:42:58.846Z,33.67
2019-04-27T01:45:46.164Z,35.60
2019-04-27T01:48:33.362Z,34.43
2019-04-27T01:51:21.127Z,32.93
2019-04-27T01:54:10.551Z,34.10
2019-04-27T01:57:00.675Z,29.77
2019-04-27T01:59:46.733Z,33.53
2019-04-27T02:02:40.264Z,33.07
2019-04-27T02:05:52.821Z,34.37
2019-04-27T02:08:40.361Z,29.30
2019-04-27T02:11:28.748Z,31.40
2019-04-27T02:14:16.548Z,30.73
2019-04-27T02:17:03.566Z,30.13
2019-04-27T02:19:50.786Z,30.37
2019-04-27T02:22:38.474Z,34.33
2019-04-27T02:25:25.728Z,28.37
2019-04-27T02:28:25.410Z,27.77
2019-04-27T02:31:29.012Z,31.17
2019-04-27T02:34:19.933Z,29.23
2019-04-27T02:37:10.000Z,26.37
2019-04-27T02:39:56.384Z,30.13
2019-04-27T02:42:45.447Z,25.97
2019-04-27T02:45:32.491Z,25.53
2019-04-27T02:48:20.086Z,27.53
2019-04-27T02:51:10.041Z,25.97
2019-04-27T02:54:00.228Z,23.00
2019-04-27T02:56:47.142Z,25.30
2019-04-27T02:59:34.315Z,23.23
2019-04-27T03:02:29.685Z,20.63
2019-04-27T03:05:24.628Z,21.97
2019-04-27T03:08:12.146Z,22.93
2019-04-27T03:11:01.223Z,22.03
2019-04-27T03:14:06.372Z,20.00
2019-04-27T03:17:17.109Z,20.30
2019-04-27T03:20:13.851Z,19.37
2019-04-27T03:23:03.846Z,21.97
2019-04-27T03:26:10.587Z,21.13
2019-04-27T03:28:56.818Z,17.43
2019-04-27T03:31:47.631Z,18.53
2019-04-27T03:34:32.689Z,17.77
2019-04-27T03:37:20.425Z,19.27
2019-04-27T03:40:10.325Z,15.33
2019-04-27T03:42:59.723Z,15.53
2019-04-27T03:45:46.771Z,18.27
2019-04-27T03:48:34.066Z,17.67
2019-04-27T03:51:27.106Z,14.77
2019-04-27T03:54:22.712Z,16.43
2019-04-27T03:57:29.912Z,17.73
2019-04-27T04:00:20.142Z,16.23
2019-04-27T04:03:07.646Z,17.37
2019-04-27T04:05:55.126Z,14.53
2019-04-27T04:08:42.798Z,14.97
2019-04-27T04:11:40.571Z,18.00
2019-04-27T04:14:30.121Z,14.67
2019-04-27T04:17:20.386Z,16.53
2019-04-27T04:20:09.996Z,13.83
2019-04-27T04:22:56.498Z,19.43
2019-04-27T04:25:43.433Z,13.63
2019-04-27T04:28:30.641Z,16.10
2019-04-27T04:31:17.916Z,16.93
2019-04-27T04:34:05.537Z,19.30
2019-04-27T04:36:52.818Z,15.90
2019-04-27T04:39:40.597Z,14.47
2019-04-27T04:42:34.421Z,17.07
2019-04-27T04:45:33.977Z,13.87
2019-04-27T04:48:21.104Z,13.93
2019-04-27T04:51:10.077Z,16.10
2019-04-27T04:53:59.765Z,18.70
2019-04-27T04:56:46.649Z,15.40
2019-04-27T04:59:34.270Z,13.70
2019-04-27T05:02:21.782Z,13.90
2019-04-27T05:05:09.489Z,11.83
2019-04-27T05:07:56.645Z,11.30
2019-04-27T05:10:43.622Z,11.87
2019-04-27T05:13:30.872Z,10.40
2019-04-27T05:16:18.941Z,14.23
2019-04-27T05:19:06.191Z,12.90
2019-04-27T05:21:53.709Z,12.27
2019-04-27T05:24:40.850Z,13.23
2019-04-27T05:27:29.092Z,10.73
2019-04-27T05:30:16.497Z,9.63
2019-04-27T05:33:03.479Z,8.70
2019-04-27T05:35:50.465Z,12.10
2019-04-27T05:38:41.978Z,11.00
2019-04-27T05:41:26.721Z,8.23
2019-04-27T05:44:31.465Z,11.00
2019-04-27T05:47:23.569Z,12.03
2019-04-27T05:50:18.261Z,8.60
2019-04-27T05:53:04.169Z,11.23
2019-04-27T05:55:51.718Z,10.10
2019-04-27T05:58:39.374Z,8.73
2019-04-27T06:01:26.377Z,9.80
2019-04-27T06:04:13.670Z,12.03
2019-04-27T06:07:01.182Z,8.80
2019-04-27T06:09:49.281Z,10.60
2019-04-27T06:12:36.841Z,7.73
2019-04-27T06:15:24.136Z,8.23
2019-04-27T06:18:11.117Z,8.40
2019-04-27T06:20:59.695Z,8.83
2019-04-27T06:23:48.724Z,8.57
2019-04-27T06:26:36.138Z,10.80
2019-04-27T06:29:23.445Z,6.63
2019-04-27T06:32:11.056Z,12.37
2019-04-27T06:34:58.938Z,7.47
2019-04-27T06:37:46.621Z,6.90
2019-04-27T06:40:35.430Z,8.77
2019-04-27T06:43:22.886Z,7.23
2019-04-27T06:46:09.906Z,4.50
2019-04-27T06:48:57.141Z,4.47
2019-04-27T06:51:44.325Z,4.60
2019-04-27T06:54:31.953Z,11.00
2019-04-27T06:57:19.345Z,4.93
2019-04-27T07:00:08.966Z,5.10
2019-04-27T07:02:56.352Z,4.63
2019-04-27T07:05:43.805Z,6.30
2019-04-27T07:08:31.453Z,4.67
2019-04-27T07:11:19.704Z,4.40
2019-04-27T07:14:07.117Z,4.87
2019-04-27T07:16:54.417Z,4.10
2019-04-27T07:19:41.769Z,4.30
2019-04-27T07:22:29.899Z,5.70
2019-04-27T07:25:18.889Z,4.23
2019-04-27T07:28:06.305Z,4.77
2019-04-27T07:30:53.369Z,4.90
2019-04-27T07:33:40.844Z,6.67
2019-04-27T07:36:28.971Z,3.47
2019-04-27T07:39:16.429Z,3.77
2019-04-27T07:42:03.973Z,6.50
2019-04-27T07:44:59.928Z,6.70
2019-04-27T07:47:49.267Z,3.27
2019-04-27T07:50:36.833Z,3.97
2019-04-27T07:53:23.962Z,4.80
2019-04-27T07:56:11.296Z,7.00
2019-04-27T07:58:59.570Z,4.00
2019-04-27T08:01:47.161Z,4.43
2019-04-27T08:04:34.622Z,3.70
2019-04-27T08:07:21.669Z,3.57
2019-04-27T08:10:09.757Z,4.07
2019-04-27T08:12:57.124Z,4.67
2019-04-27T08:15:44.089Z,2.80
2019-04-27T08:18:31.233Z,3.70
2019-04-27T08:21:18.919Z,4.87
2019-04-27T08:24:06.296Z,3.47
2019-04-27T08:26:59.433Z,5.70
2019-04-27T08:29:56.337Z,4.23
2019-04-27T08:32:45.318Z,3.87
2019-04-27T08:35:32.788Z,2.27
2019-04-27T08:38:20.682Z,3.53
2019-04-27T08:41:09.015Z,2.70
2019-04-27T08:43:56.521Z,3.40
2019-04-27T08:46:43.805Z,4.83
2019-04-27T08:49:30.725Z,4.73
2019-04-27T08:52:19.384Z,2.13
2019-04-27T08:55:07.069Z,2.93
2019-04-27T08:57:54.652Z,2.17
2019-04-27T09:00:41.844Z,3.40
2019-04-27T09:03:29.508Z,3.77
2019-04-27T09:06:16.733Z,3.47
2019-04-27T09:09:10.317Z,3.87
2019-04-27T09:12:16.728Z,2.60
2019-04-27T09:15:11.933Z,3.10
2019-04-27T09:17:59.165Z,4.27
2019-04-27T09:20:49.555Z,2.30
2019-04-27T09:23:38.689Z,3.53
2019-04-27T09:26:26.029Z,1.90
2019-04-27T09:29:13.221Z,4.30
2019-04-27T09:32:01.819Z,2.63
2019-04-27T09:34:49.181Z,2.50
2019-04-27T09:37:36.711Z,2.10
2019-04-27T09:40:23.766Z,2.23
2019-04-27T09:43:10.865Z,2.73
2019-04-27T09:45:58.289Z,2.43
2019-04-27T09:48:46.648Z,3.47
2019-04-27T09:51:34.112Z,3.30
2019-04-27T09:54:23.620Z,3.10
2019-04-27T09:57:10.093Z,2.10
2019-04-27T09:59:57.293Z,3.77
2019-04-27T10:02:46.432Z,3.30
2019-04-27T10:05:33.654Z,3.63
2019-04-27T10:08:20.834Z,4.03
2019-04-27T10:11:07.764Z,5.00
2019-04-27T10:13:55.622Z,3.27
2019-04-27T10:16:43.233Z,3.63
2019-04-27T10:19:32.946Z,7.63
2019-04-27T10:22:19.351Z,3.33
2019-04-27T10:25:07.390Z,16.00
2019-04-27T10:28:00.649Z,6.90
2019-04-27T10:30:47.847Z,6.07
2019-04-27T10:33:35.871Z,4.27
2019-04-27T10:36:41.401Z,6.67
2019-04-27T10:39:28.659Z,4.87
2019-04-27T10:42:16.257Z,7.30
2019-04-27T10:45:03.828Z,6.80
2019-04-27T10:47:51.066Z,6.27
2019-04-27T10:50:38.421Z,4.30
2019-04-27T10:53:26.862Z,6.17
2019-04-27T10:56:14.257Z,5.60
2019-04-27T10:59:01.690Z,11.03
2019-04-27T11:01:48.980Z,4.27
2019-04-27T11:04:56.592Z,6.87
2019-04-27T11:07:43.945Z,4.60
2019-04-27T11:10:31.158Z,4.57
2019-04-27T11:13:18.447Z,5.67
2019-04-27T11:16:05.779Z,5.10
2019-04-27T11:18:53.151Z,6.40
2019-04-27T11:21:40.581Z,7.47
2019-04-27T11:24:27.852Z,7.70
2019-04-27T11:27:15.409Z,7.50
2019-04-27T11:30:03.004Z,8.40
2019-04-27T11:32:49.995Z,5.20
2019-04-27T11:35:55.388Z,4.83
2019-04-27T11:38:42.327Z,5.83
2019-04-27T11:41:29.201Z,6.50
2019-04-27T11:44:17.041Z,6.10
2019-04-27T11:47:05.847Z,6.43
2019-04-27T11:49:53.297Z,7.40
2019-04-27T11:52:40.856Z,12.23
2019-04-27T11:55:28.437Z,10.37
2019-04-27T11:58:16.457Z,7.03
2019-04-27T12:01:04.033Z,7.97
2019-04-27T12:03:51.342Z,5.60
2019-04-27T12:06:38.897Z,6.27
2019-04-27T12:09:26.122Z,4.03
2019-04-27T12:12:19.445Z,6.67
2019-04-27T12:15:02.674Z,15.57
2019-04-27T12:17:49.946Z,5.50
2019-04-27T12:20:37.225Z,8.33
2019-04-27T12:23:33.777Z,5.93
2019-04-27T12:26:50.833Z,4.40
2019-04-27T12:29:55.834Z,6.67
2019-04-27T12:32:43.169Z,4.97
2019-04-27T12:35:30.477Z,7.43
2019-04-27T12:38:17.986Z,4.87
2019-04-27T12:41:06.814Z,8.57
2019-04-27T12:43:56.069Z,6.93
2019-04-27T12:46:43.462Z,4.97
2019-04-27T12:49:30.686Z,4.07
2019-04-27T12:52:18.845Z,4.53
2019-04-27T12:55:28.573Z,4.70
2019-04-27T12:58:36.448Z,4.30
2019-04-27T13:01:25.748Z,5.77
2019-04-27T13:04:13.209Z,6.57
2019-04-27T13:07:00.428Z,7.77
2019-04-27T13:09:47.594Z,5.33
2019-04-27T13:12:35.807Z,6.80
2019-04-27T13:15:23.432Z,2.97
2019-04-27T13:18:10.837Z,3.03
2019-04-27T13:20:58.386Z,5.07
2019-04-27T13:23:45.869Z,3.00
2019-04-27T13:26:33.049Z,3.07
2019-04-27T13:29:20.009Z,3.63
2019-04-27T13:32:07.631Z,3.23
2019-04-27T13:34:56.582Z,4.87
2019-04-27T13:37:44.001Z,4.57
2019-04-27T13:40:35.568Z,8.17
2019-04-27T13:43:28.453Z,4.00
2019-04-27T13:46:33.657Z,9.40
2019-04-27T13:49:40.068Z,3.70
2019-04-27T13:52:30.274Z,3.20
2019-04-27T13:55:17.621Z,4.10
2019-04-27T13:58:05.249Z,5.37
2019-04-27T14:00:52.725Z,3.27
2019-04-27T14:03:39.961Z,3.23
2019-04-27T14:06:27.032Z,6.97
2019-04-27T14:09:14.285Z,6.73
2019-04-27T14:12:08.485Z,4.80
2019-04-27T14:14:55.897Z,5.40
2019-04-27T14:17:42.901Z,5.70
2019-04-27T14:20:30.569Z,4.40
2019-04-27T14:23:20.014Z,6.30
2019-04-27T14:26:08.751Z,4.80
2019-04-27T14:28:56.277Z,3.87
2019-04-27T14:31:43.641Z,3.23
2019-04-27T14:34:30.849Z,7.27
2019-04-27T14:37:18.599Z,6.67
2019-04-27T14:40:08.337Z,5.80
2019-04-27T14:42:55.997Z,2.60
2019-04-27T14:45:43.321Z,4.57
2019-04-27T14:48:30.576Z,4.63
2019-04-27T14:51:18.724Z,6.90
2019-04-27T14:54:06.393Z,11.37
2019-04-27T14:56:53.941Z,4.60
2019-04-27T14:59:41.474Z,19.50
2019-04-27T15:02:28.810Z,8.70
2019-04-27T15:05:16.181Z,14.13
2019-04-27T15:08:08.197Z,6.67
2019-04-27T15:10:53.933Z,9.93
2019-04-27T15:13:42.985Z,24.03
2019-04-27T15:16:31.029Z,15.07
2019-04-27T15:19:25.202Z,7.63
2019-04-27T15:22:19.340Z,11.87
2019-04-27T15:25:11.976Z,6.70
2019-04-27T15:28:01.285Z,7.50
2019-04-27T15:31:09.884Z,11.10
2019-04-27T15:34:11.082Z,6.30
2019-04-27T15:37:14.058Z,6.23
2019-04-27T15:40:12.668Z,6.33
2019-04-27T15:43:11.047Z,4.70
2019-04-27T15:45:58.728Z,5.50
2019-04-27T15:48:45.789Z,4.60
2019-04-27T15:51:32.718Z,8.00
2019-04-27T15:54:22.227Z,4.77
2019-04-27T15:57:12.386Z,6.83
2019-04-27T15:59:58.440Z,6.40
2019-04-27T16:02:49.398Z,5.37
2019-04-27T16:05:36.082Z,8.37
2019-04-27T16:08:23.406Z,9.13
2019-04-27T16:11:16.572Z,4.73
2019-04-27T16:14:03.024Z,6.17
2019-04-27T16:16:48.826Z,6.70
2019-04-27T16:19:36.413Z,7.37
2019-04-27T16:22:26.875Z,11.00
2019-04-27T16:25:12.638Z,4.57
2019-04-27T16:27:59.557Z,12.53
2019-04-27T16:30:52.352Z,8.57
2019-04-27T16:33:35.428Z,7.17
2019-04-27T16:36:22.777Z,6.00
2019-04-27T16:39:10.342Z,7.80
2019-04-27T16:41:58.749Z,5.87
2019-04-27T16:44:52.047Z,9.70
2019-04-27T16:47:35.189Z,7.63
2019-04-27T16:50:25.354Z,10.20
2019-04-27T16:53:12.606Z,11.03
2019-04-27T16:56:15.010Z,8.23
2019-04-27T16:59:10.024Z,6.67
2019-04-27T17:01:47.526Z,6.93
2019-04-27T17:04:35.190Z,8.80
2019-04-27T17:07:22.145Z,7.90
2019-04-27T17:10:09.616Z,9.23
2019-04-27T17:12:58.751Z,9.60
2019-04-27T17:16:03.641Z,6.10
2019-04-27T17:18:57.742Z,6.77
2019-04-27T17:21:43.049Z,7.43
2019-04-27T17:24:45.254Z,7.83
2019-04-27T17:27:38.356Z,6.37
2019-04-27T17:30:26.014Z,6.60
2019-04-27T17:33:23.083Z,7.77
2019-04-27T17:36:12.170Z,9.17
2019-04-27T17:38:59.333Z,6.73
2019-04-27T17:41:52.066Z,3.70
2019-04-27T17:44:35.569Z,5.00
2019-04-27T17:47:26.471Z,7.23
2019-04-27T17:50:11.789Z,5.40
2019-04-27T17:52:59.154Z,6.13
2019-04-27T17:55:46.261Z,6.67
2019-04-27T17:58:35.450Z,6.83
2019-04-27T18:01:26.548Z,7.57
2019-04-27T18:04:11.609Z,7.47
2019-04-27T18:07:02.066Z,6.93
2019-04-27T18:09:48.306Z,5.10
2019-04-27T18:12:35.736Z,4.90
2019-04-27T18:15:23.209Z,8.50
2019-04-27T18:18:18.813Z,11.77
2019-04-27T18:21:06.289Z,7.93
2019-04-27T18:24:01.661Z,11.70
2019-04-27T18:27:10.718Z,8.23
2019-04-27T18:30:10.856Z,8.50
2019-04-27T18:33:01.969Z,6.87
2019-04-27T18:35:46.729Z,17.77
2019-04-27T18:38:35.504Z,16.00
2019-04-27T18:41:23.164Z,14.67
2019-04-27T18:44:11.190Z,21.33
2019-04-27T18:47:02.184Z,7.83
2019-04-27T18:50:15.557Z,7.10
2019-04-27T18:53:11.892Z,7.73
2019-04-27T18:56:04.560Z,9.30
2019-04-27T18:58:47.985Z,7.10
2019-04-27T19:01:34.934Z,7.23
2019-04-27T19:04:22.222Z,8.70
2019-04-27T19:07:09.741Z,6.03
2019-04-27T19:09:56.960Z,6.57
2019-04-27T19:12:44.010Z,6.27
2019-04-27T19:15:30.998Z,8.07
2019-04-27T19:18:18.850Z,9.43
2019-04-27T19:21:06.499Z,7.17
2019-04-27T19:23:53.923Z,10.37
2019-04-27T19:26:48.961Z,8.80
2019-04-27T19:29:40.898Z,7.70
2019-04-27T19:32:28.978Z,9.63
2019-04-27T19:35:16.238Z,9.37
2019-04-27T19:38:03.517Z,8.60
2019-04-27T19:40:50.801Z,7.73
2019-04-27T19:43:38.420Z,11.10
2019-04-27T19:46:25.937Z,7.53
2019-04-27T19:49:13.142Z,8.53
2019-04-27T19:52:00.549Z,9.23
2019-04-27T19:54:49.410Z,12.03
2019-04-27T19:57:39.349Z,16.80
2019-04-27T20:00:50.658Z,16.10
2019-04-27T20:03:44.552Z,6.30
2019-04-27T20:06:31.881Z,5.60
2019-04-27T20:09:24.137Z,6.13
2019-04-27T20:12:13.668Z,9.40
2019-04-27T20:15:02.250Z,5.33
2019-04-27T20:17:50.784Z,7.17
2019-04-27T20:20:38.556Z,6.17
2019-04-27T20:23:25.757Z,8.40
2019-04-27T20:26:13.313Z,5.80
2019-04-27T20:29:01.518Z,6.13
2019-04-27T20:31:48.842Z,4.33
2019-04-27T20:34:36.057Z,3.87
2019-04-27T20:37:23.540Z,5.03
2019-04-27T20:40:11.618Z,4.13
2019-04-27T20:42:59.054Z,5.60
2019-04-27T20:45:46.240Z,4.17
2019-04-27T20:48:33.239Z,4.17
2019-04-27T20:51:41.217Z,5.53
2019-04-27T20:54:30.615Z,7.40
2019-04-27T20:57:18.069Z,3.77
2019-04-27T21:00:05.731Z,6.77
2019-04-27T21:03:11.960Z,15.60
2019-04-27T21:06:21.529Z,7.17
2019-04-27T21:09:15.573Z,4.73
2019-04-27T21:12:02.997Z,5.67
2019-04-27T21:14:51.931Z,5.83
2019-04-27T21:17:38.637Z,4.30
2019-04-27T21:20:26.093Z,5.70
2019-04-27T21:23:13.604Z,7.33
2019-04-27T21:26:02.099Z,4.60
2019-04-27T21:28:51.223Z,6.57
2019-04-27T21:31:38.697Z,8.70
2019-04-27T21:34:25.877Z,5.80
2019-04-27T21:37:13.249Z,6.57
2019-04-27T21:40:16.652Z,9.10
2019-04-27T21:43:04.058Z,7.50
2019-04-27T21:45:51.342Z,7.90
2019-04-27T21:48:38.544Z,8.30
2019-04-27T21:51:25.886Z,7.83
2019-04-27T21:54:21.685Z,11.50
2019-04-27T21:57:11.138Z,6.30
2019-04-27T21:59:57.837Z,5.07
2019-04-27T22:02:45.942Z,5.30
2019-04-27T22:05:33.217Z,8.57
2019-04-27T22:08:21.489Z,10.30
2019-04-27T22:11:08.518Z,10.03
2019-04-27T22:13:55.823Z,11.23
2019-04-27T22:16:43.121Z,12.73
2019-04-27T22:19:31.119Z,8.67
2019-04-27T22:22:26.149Z,14.77
2019-04-27T22:25:13.440Z,11.87
2019-04-27T22:28:01.540Z,11.30
2019-04-27T22:30:49.142Z,12.83
2019-04-27T22:33:36.362Z,17.40
2019-04-27T22:36:23.957Z,20.57
2019-04-27T22:39:22.706Z,8.80
2019-04-27T22:42:28.019Z,6.27
2019-04-27T22:45:19.334Z,11.00
2019-04-27T22:48:06.580Z,6.60
2019-04-27T22:50:53.886Z,6.00
2019-04-27T22:53:41.103Z,6.53
2019-04-27T22:56:28.621Z,6.93
2019-04-27T22:59:33.858Z,7.47
2019-04-27T23:02:29.261Z,6.50
2019-04-27T23:05:15.989Z,6.57
2019-04-27T23:08:02.974Z,7.70
2019-04-27T23:10:50.179Z,12.60
2019-04-27T23:13:37.588Z,6.60
2019-04-27T23:16:26.397Z,6.07
2019-04-27T23:19:13.584Z,6.90
2019-04-27T23:22:00.855Z,8.50
2019-04-27T23:24:48.334Z,7.97
2019-04-27T23:27:35.417Z,5.40
2019-04-27T23:30:28.041Z,8.57
2019-04-27T23:33:15.429Z,6.17
2019-04-27T23:36:02.390Z,7.10
2019-04-27T23:38:50.873Z,8.50
2019-04-27T23:41:38.160Z,9.27
2019-04-27T23:44:25.346Z,7.87
2019-04-27T23:47:12.652Z,10.07
2019-04-27T23:50:00.830Z,9.30
2019-04-27T23:53:12.489Z,10.50
2019-04-27T23:55:59.849Z,10.00
2019-04-27T23:58:47.006Z,7.83
